Time;durP1;ratioP1;P1;durP2;ratioP2;P2;SDS_P1;SDS_P2;PMS_P1;PMS_P2;Temp;Humidity;BMP_temperature;BMP_pressure;BME280_temperature;BME280_humidity;BME280_pressure;Samples;Min_cycle;Max_cycle;Signal;HPM_P1;HPM_P2
2022/06/02 00:02:06;;;;;;;9.18;4.38;;;;;;;;;;5031532;28;20100;-38
2022/06/02 00:04:37;;;;;;;7.22;3.65;;;;;;;;;;5030587;28;20583;-38
2022/06/02 00:07:05;;;;;;;11.30;4.97;;;;;;;;;;5033307;28;20480;-39
2022/06/02 00:09:47;;;;;;;9.68;4.63;;;;;;;;;;5035068;28;20020;-38
2022/06/02 00:12:28;;;;;;;7.93;4.78;;;;;;;;;;5034969;28;20029;-39
2022/06/02 00:15:14;;;;;;;5.65;3.30;;;;;;;;;;5035078;28;20026;-39
2022/06/02 00:17:48;;;;;;;5.95;3.15;;;;;;;;;;5034040;28;20044;-38
2022/06/02 00:20:49;;;;;;;4.45;3.25;;;;;;;;;;5033519;28;20664;-39
2022/06/02 00:23:20;;;;;;;5.00;3.30;;;;;;;;;;5027315;28;20480;-39
2022/06/02 00:25:45;;;;;;;5.20;3.90;;;;;;;;;;5054568;28;20100;-39
2022/06/02 00:28:30;;;;;;;6.85;3.47;;;;;;;;;;5054927;28;20044;-39
2022/06/02 00:30:59;;;;;;;7.78;4.10;;;;;;;;;;5054192;28;20032;-39
2022/06/02 00:33:31;;;;;;;6.53;3.65;;;;;;;;;;5055022;28;20530;-39
2022/06/02 00:36:16;;;;;;;5.20;4.43;;;;;;;;;;5053535;28;20021;-39
2022/06/02 00:38:41;;;;;;;7.38;3.95;;;;;;;;;;5054438;28;20051;-40
2022/06/02 00:41:14;;;;;;;13.85;4.80;;;;;;;;;;5053118;28;20363;-39
2022/06/02 00:43:51;;;;;;;5.38;3.75;;;;;;;;;;5036104;28;20080;-38
2022/06/02 00:46:16;;;;;;;6.40;4.07;;;;;;;;;;5033426;28;20057;-39
2022/06/02 00:48:58;;;;;;;5.30;3.70;;;;;;;;;;5033155;28;20421;-40
2022/06/02 00:51:30;;;;;;;5.22;3.58;;;;;;;;;;5033241;28;20028;-39
2022/06/02 00:59:42;;;;;;;4.28;3.70;;;;;;;;;;5034078;28;19912;-39
2022/06/02 01:02:07;;;;;;;7.15;3.90;;;;;;;;;;5034354;28;20037;-39
2022/06/02 01:04:35;;;;;;;5.72;3.72;;;;;;;;;;5034032;28;20108;-39
2022/06/02 01:07:09;;;;;;;4.70;3.10;;;;;;;;;;5033058;28;20022;-39
2022/06/02 01:09:46;;;;;;;5.93;3.65;;;;;;;;;;5034028;28;20113;-38
2022/06/02 01:12:30;;;;;;;4.85;3.50;;;;;;;;;;5032958;28;20083;-39
2022/06/02 01:15:10;;;;;;;5.80;3.78;;;;;;;;;;5032558;28;20068;-39
2022/06/02 01:17:36;;;;;;;7.78;3.40;;;;;;;;;;5034006;28;20072;-39
2022/06/02 01:20:04;;;;;;;6.18;4.45;;;;;;;;;;5033684;28;20013;-38
2022/06/02 01:22:32;;;;;;;8.10;3.60;;;;;;;;;;5033456;28;20478;-38
2022/06/02 01:25:03;;;;;;;7.70;3.92;;;;;;;;;;5033914;28;20025;-39
2022/06/02 01:27:42;;;;;;;5.80;3.85;;;;;;;;;;5033499;28;20472;-38
2022/06/02 01:30:22;;;;;;;6.15;3.72;;;;;;;;;;5032354;28;20026;-38
2022/06/02 01:32:54;;;;;;;4.68;3.70;;;;;;;;;;5032367;28;20472;-39
2022/06/02 01:35:31;;;;;;;5.38;3.88;;;;;;;;;;5033590;28;20017;-39
2022/06/02 01:38:06;;;;;;;11.95;4.03;;;;;;;;;;5032083;28;20075;-39
2022/06/02 01:40:31;;;;;;;6.47;4.72;;;;;;;;;;5032061;28;20022;-39
2022/06/02 01:43:08;;;;;;;5.38;4.13;;;;;;;;;;5033292;28;20518;-39
2022/06/02 01:45:52;;;;;;;7.43;4.90;;;;;;;;;;5032203;28;20029;-39
2022/06/02 01:48:22;;;;;;;6.00;3.88;;;;;;;;;;5033302;28;20025;-40
2022/06/02 01:51:11;;;;;;;9.65;4.35;;;;;;;;;;5033249;28;20100;-38
2022/06/02 01:53:55;;;;;;;8.43;4.55;;;;;;;;;;5032629;28;20033;-39
2022/06/02 01:56:30;;;;;;;7.38;4.65;;;;;;;;;;5031817;28;20045;-39
2022/06/02 01:59:02;;;;;;;10.40;5.18;;;;;;;;;;5033482;28;20025;-39
2022/06/02 02:01:33;;;;;;;7.65;3.95;;;;;;;;;;5032934;28;20463;-40
2022/06/02 02:04:04;;;;;;;6.72;4.43;;;;;;;;;;5033041;28;20473;-39
2022/06/02 02:06:30;;;;;;;11.55;4.65;;;;;;;;;;5031708;28;20053;-39
2022/06/02 02:09:14;;;;;;;8.60;5.20;;;;;;;;;;5032813;28;20401;-39
2022/06/02 02:11:45;;;;;;;6.38;4.63;;;;;;;;;;5031559;28;20024;-38
2022/06/02 02:14:14;;;;;;;12.55;5.32;;;;;;;;;;5033005;28;20065;-39
2022/06/02 02:16:49;;;;;;;9.25;4.88;;;;;;;;;;5033032;28;20075;-38
2022/06/02 02:19:15;;;;;;;7.60;4.72;;;;;;;;;;5031222;28;20017;-39
2022/06/02 02:21:43;;;;;;;10.23;5.25;;;;;;;;;;5031447;28;20523;-39
2022/06/02 02:24:27;;;;;;;7.30;4.78;;;;;;;;;;5032960;28;20045;-39
2022/06/02 02:26:52;;;;;;;7.68;5.30;;;;;;;;;;5032695;28;20022;-39
2022/06/02 02:29:27;;;;;;;8.93;4.85;;;;;;;;;;5031785;28;20029;-40
2022/06/02 02:32:10;;;;;;;6.30;4.90;;;;;;;;;;5031548;28;20396;-38
2022/06/02 02:34:42;;;;;;;8.52;5.18;;;;;;;;;;5032740;28;20021;-38
2022/06/02 02:37:11;;;;;;;6.60;5.10;;;;;;;;;;5031397;28;20025;-41
2022/06/02 02:39:36;;;;;;;8.43;4.97;;;;;;;;;;5031181;28;20013;-39
2022/06/02 02:42:02;;;;;;;5.25;4.25;;;;;;;;;;5031160;28;20092;-39
2022/06/02 02:44:34;;;;;;;7.68;4.65;;;;;;;;;;5032194;28;20144;-39
2022/06/02 02:47:38;;;;;;;9.00;4.72;;;;;;;;;;5031113;28;20046;-39
2022/06/02 02:50:07;;;;;;;11.27;4.45;;;;;;;;;;5029721;28;20029;-39
2022/06/02 02:52:38;;;;;;;5.68;4.55;;;;;;;;;;5030152;28;20112;-39
2022/06/02 02:55:13;;;;;;;9.25;5.03;;;;;;;;;;5020898;28;20061;-39
2022/06/02 02:58:02;;;;;;;7.40;4.75;;;;;;;;;;5030020;28;20075;-39
2022/06/02 03:00:33;;;;;;;4.97;3.83;;;;;;;;;;5032029;28;20029;-39
2022/06/02 03:03:08;;;;;;;5.72;4.40;;;;;;;;;;5032350;28;20373;-39
2022/06/02 03:05:52;;;;;;;7.28;4.10;;;;;;;;;;5030929;28;20354;-40
2022/06/02 03:08:25;;;;;;;6.60;5.00;;;;;;;;;;5032376;28;20017;-41
2022/06/02 03:10:53;;;;;;;6.60;5.05;;;;;;;;;;5030984;28;20468;-39
2022/06/02 03:13:19;;;;;;;8.48;5.40;;;;;;;;;;5032621;28;20152;-39
2022/06/02 03:16:14;;;;;;;8.63;5.00;;;;;;;;;;5032143;28;20064;-39
2022/06/02 03:18:42;;;;;;;7.53;4.70;;;;;;;;;;5031663;28;20057;-39
2022/06/02 03:21:16;;;;;;;5.70;4.53;;;;;;;;;;5032376;28;20048;-41
2022/06/02 03:24:00;;;;;;;10.70;6.03;;;;;;;;;;5032093;28;20033;-39
2022/06/02 03:26:36;;;;;;;8.30;5.18;;;;;;;;;;5030743;28;20030;-39
2022/06/02 03:29:02;;;;;;;8.05;4.70;;;;;;;;;;5030691;28;20365;-39
2022/06/02 03:31:36;;;;;;;8.25;5.63;;;;;;;;;;5032198;28;20032;-40
2022/06/02 03:34:21;;;;;;;7.65;5.38;;;;;;;;;;5032096;28;20025;-39
2022/06/02 03:37:12;;;;;;;11.50;6.20;;;;;;;;;;5031873;28;20463;-39
2022/06/02 03:39:52;;;;;;;6.75;5.35;;;;;;;;;;5030363;28;20029;-39
2022/06/02 03:42:38;;;;;;;11.95;5.38;;;;;;;;;;5032690;28;20081;-42
2022/06/02 03:45:06;;;;;;;12.90;5.45;;;;;;;;;;5035452;28;20076;-39
2022/06/02 03:47:35;;;;;;;10.38;5.50;;;;;;;;;;5034251;28;20029;-40
2022/06/02 03:50:27;;;;;;;11.90;5.57;;;;;;;;;;5035640;28;20079;-39
2022/06/02 03:52:52;;;;;;;8.30;5.07;;;;;;;;;;5032973;28;20029;-40
2022/06/02 03:55:44;;;;;;;7.88;4.70;;;;;;;;;;5035674;28;20037;-41
2022/06/02 03:58:23;;;;;;;10.30;5.03;;;;;;;;;;5039942;28;20037;-38
2022/06/02 04:00:49;;;;;;;7.95;4.82;;;;;;;;;;5055294;28;20044;-39
2022/06/02 04:03:33;;;;;;;9.90;5.20;;;;;;;;;;5054024;28;20033;-38
2022/06/02 04:06:17;;;;;;;7.38;3.97;;;;;;;;;;5055661;28;20032;-39
2022/06/02 04:08:53;;;;;;;8.93;5.00;;;;;;;;;;5055205;28;20028;-39
2022/06/02 04:13:37;;;;;;;8.65;4.82;;;;;;;;;;5055646;28;20025;-40
2022/06/02 04:14:35;;;;;;;8.15;4.47;;;;;;;;;;5054939;28;20087;-39
2022/06/02 04:17:19;;;;;;;6.95;4.55;;;;;;;;;;5053628;28;20029;-39
2022/06/02 04:22:55;;;;;;;10.40;5.63;;;;;;;;;;5054827;28;20539;-39
2022/06/02 04:25:26;;;;;;;8.68;5.55;;;;;;;;;;5053590;28;20491;-40
2022/06/02 04:28:12;;;;;;;12.63;5.80;;;;;;;;;;5055351;28;20024;-39
2022/06/02 04:30:44;;;;;;;8.57;4.90;;;;;;;;;;5052620;28;20107;-40
2022/06/02 04:33:15;;;;;;;6.75;4.85;;;;;;;;;;5054604;28;20419;-39
2022/06/02 04:35:43;;;;;;;7.07;4.93;;;;;;;;;;5051837;28;20024;-38
2022/06/02 04:38:29;;;;;;;9.48;3.83;;;;;;;;;;5053496;28;20118;-39
2022/06/02 04:40:59;;;;;;;11.23;4.32;;;;;;;;;;5028848;28;20473;-38
2022/06/02 04:43:32;;;;;;;6.60;3.80;;;;;;;;;;5028088;28;20072;-39
2022/06/02 04:46:10;;;;;;;6.03;4.15;;;;;;;;;;5033197;28;20384;-38
2022/06/02 04:48:36;;;;;;;11.60;4.10;;;;;;;;;;5034524;28;20021;-39
2022/06/02 04:51:19;;;;;;;7.10;4.00;;;;;;;;;;5034906;28;20487;-39
2022/06/02 04:53:56;;;;;;;9.93;4.13;;;;;;;;;;5034321;28;20033;-39
2022/06/02 04:56:26;;;;;;;8.50;4.18;;;;;;;;;;5032945;28;20472;-39
2022/06/02 04:58:52;;;;;;;7.35;3.38;;;;;;;;;;5033023;28;20088;-40
2022/06/02 05:01:32;;;;;;;9.70;4.32;;;;;;;;;;5033225;28;20052;-41
2022/06/02 05:04:00;;;;;;;11.70;4.40;;;;;;;;;;5033165;28;20037;-39
2022/06/02 05:06:45;;;;;;;12.77;4.53;;;;;;;;;;5032975;28;20021;-39
2022/06/02 05:09:43;;;;;;;7.85;4.65;;;;;;;;;;5033636;28;20451;-39
2022/06/02 05:12:08;;;;;;;7.78;3.45;;;;;;;;;;5032731;28;20041;-40
2022/06/02 05:14:37;;;;;;;7.50;3.85;;;;;;;;;;5032887;28;20029;-39
2022/06/02 05:17:19;;;;;;;7.00;3.90;;;;;;;;;;5034059;28;20045;-39
2022/06/02 05:19:51;;;;;;;7.95;3.97;;;;;;;;;;5032137;28;20267;-39
2022/06/02 05:22:19;;;;;;;5.50;3.42;;;;;;;;;;5032539;28;20458;-39
2022/06/02 05:25:03;;;;;;;12.70;5.77;;;;;;;;;;5033893;28;20487;-39
2022/06/02 05:27:31;;;;;;;5.72;4.38;;;;;;;;;;5032440;28;20029;-40
2022/06/02 05:30:00;;;;;;;6.72;4.28;;;;;;;;;;5033260;28;20544;-38
2022/06/02 05:32:34;;;;;;;4.60;3.85;;;;;;;;;;5033734;28;20053;-38
2022/06/02 05:35:18;;;;;;;15.65;4.70;;;;;;;;;;5031964;28;20431;-39
2022/06/02 05:37:49;;;;;;;7.22;4.40;;;;;;;;;;5032180;28;20071;-39
2022/06/02 05:40:18;;;;;;;16.10;4.43;;;;;;;;;;5029726;28;20026;-40
2022/06/02 05:42:56;;;;;;;9.18;5.45;;;;;;;;;;5027458;28;20562;-41
2022/06/02 05:45:30;;;;;;;8.00;4.50;;;;;;;;;;5022814;28;20123;-39
2022/06/02 05:48:00;;;;;;;12.50;4.97;;;;;;;;;;5021239;28;20028;-42
2022/06/02 05:50:45;;;;;;;7.47;4.45;;;;;;;;;;5021394;28;20037;-42
2022/06/02 05:53:16;;;;;;;15.27;4.50;;;;;;;;;;5016398;28;20492;-42
2022/06/02 05:55:46;;;;;;;6.13;4.22;;;;;;;;;;5017115;28;20056;-39
2022/06/02 05:58:34;;;;;;;7.35;3.60;;;;;;;;;;5026513;28;20017;-41
2022/06/02 06:01:00;;;;;;;7.78;4.35;;;;;;;;;;5024403;28;20032;-39
2022/06/02 06:03:32;;;;;;;8.73;3.67;;;;;;;;;;5026673;28;20033;-38
2022/06/02 06:06:18;;;;;;;5.95;3.25;;;;;;;;;;5023621;28;20108;-39
2022/06/02 06:09:04;;;;;;;4.80;3.00;;;;;;;;;;5029442;28;20079;-39
2022/06/02 06:11:30;;;;;;;4.85;2.92;;;;;;;;;;5017604;28;20559;-38
2022/06/02 06:14:02;;;;;;;5.85;2.75;;;;;;;;;;5022598;28;20029;-38
2022/06/02 06:16:34;;;;;;;4.00;2.88;;;;;;;;;;5020628;28;20052;-38
2022/06/02 06:19:18;;;;;;;7.32;3.80;;;;;;;;;;5023360;28;20026;-40
2022/06/02 06:22:02;;;;;;;8.35;4.68;;;;;;;;;;5026146;28;20033;-38
2022/06/02 06:24:46;;;;;;;6.07;3.47;;;;;;;;;;5051010;28;20036;-38
2022/06/02 06:27:17;;;;;;;5.85;3.47;;;;;;;;;;5047548;28;20071;-37
2022/06/02 06:30:01;;;;;;;9.15;3.00;;;;;;;;;;5035722;28;20022;-38
2022/06/02 06:32:36;;;;;;;7.80;3.80;;;;;;;;;;5032766;28;20025;-40
2022/06/02 06:35:10;;;;;;;7.35;3.03;;;;;;;;;;5032340;28;20067;-40
2022/06/02 06:37:36;;;;;;;9.45;3.75;;;;;;;;;;5032363;28;20076;-39
2022/06/02 06:40:04;;;;;;;3.83;2.50;;;;;;;;;;5020878;28;20022;-39
2022/06/02 06:42:51;;;;;;;7.40;3.42;;;;;;;;;;5017202;28;20053;-41
2022/06/02 06:45:40;;;;;;;3.58;2.47;;;;;;;;;;5031813;28;20396;-39
2022/06/02 06:48:12;;;;;;;7.13;2.60;;;;;;;;;;5029865;28;20468;-40
2022/06/02 06:50:48;;;;;;;5.28;3.13;;;;;;;;;;5040400;28;20511;-40
2022/06/02 06:53:26;;;;;;;4.75;3.70;;;;;;;;;;5032900;28;20033;-40
2022/06/02 06:56:10;;;;;;;10.82;3.28;;;;;;;;;;5030563;28;20033;-38
2022/06/02 06:58:35;;;;;;;6.78;3.55;;;;;;;;;;5023441;28;20037;-38
2022/06/02 07:01:12;;;;;;;5.13;3.15;;;;;;;;;;5033491;28;20029;-48
2022/06/02 07:03:56;;;;;;;7.18;3.95;;;;;;;;;;5033152;28;20073;-43
2022/06/02 07:06:26;;;;;;;4.95;4.05;;;;;;;;;;5040466;28;20096;-43
2022/06/02 07:08:54;;;;;;;8.65;3.35;;;;;;;;;;5048315;28;20025;-42
2022/06/02 07:14:17;;;;;;;5.72;3.47;;;;;;;;;;5051977;28;20024;-38
2022/06/02 07:16:47;;;;;;;6.40;3.35;;;;;;;;;;5053279;28;20078;-43
2022/06/02 07:19:25;;;;;;;8.10;3.58;;;;;;;;;;5055924;28;20550;-42
2022/06/02 07:21:59;;;;;;;8.82;3.22;;;;;;;;;;5055755;28;20439;-42
2022/06/02 07:24:43;;;;;;;9.75;3.47;;;;;;;;;;5052953;28;20044;-42
2022/06/02 07:27:26;;;;;;;7.18;3.13;;;;;;;;;;5021059;28;20087;-41
2022/06/02 07:29:52;;;;;;;4.28;3.10;;;;;;;;;;5034908;28;20040;-42
2022/06/02 07:32:36;;;;;;;6.10;3.30;;;;;;;;;;5035246;28;20021;-41
2022/06/02 07:35:20;;;;;;;5.05;3.00;;;;;;;;;;5035247;28;20028;-41
2022/06/02 07:38:04;;;;;;;5.32;3.28;;;;;;;;;;5035845;28;20025;-41
2022/06/02 07:40:48;;;;;;;8.57;3.95;;;;;;;;;;5034751;28;20056;-40
2022/06/02 07:43:14;;;;;;;8.52;5.38;;;;;;;;;;5035330;28;20531;-41
2022/06/02 07:45:50;;;;;;;8.10;3.15;;;;;;;;;;5035499;28;20018;-41
2022/06/02 07:48:29;;;;;;;7.85;3.13;;;;;;;;;;5035376;28;20053;-42
2022/06/02 07:50:54;;;;;;;;;;;;;;;;;;5035598;28;20032;-42
2022/06/02 07:53:26;;;;;;;6.63;3.73;;;;;;;;;;5030983;28;19917;-41
2022/06/02 07:56:02;;;;;;;8.25;3.40;;;;;;;;;;5030766;28;20028;-41
2022/06/02 07:58:39;;;;;;;6.65;3.40;;;;;;;;;;5027704;28;20028;-40
2022/06/02 08:01:11;;;;;;;16.33;5.03;;;;;;;;;;5055539;28;20031;-40
2022/06/02 08:03:55;;;;;;;5.18;3.05;;;;;;;;;;5055203;28;20061;-42
2022/06/02 08:06:33;;;;;;;8.90;4.05;;;;;;;;;;5053555;28;20025;-41
2022/06/02 08:09:19;;;;;;;9.13;4.43;;;;;;;;;;5054388;28;20037;-41
2022/06/02 08:11:58;;;;;;;4.78;2.85;;;;;;;;;;5055195;28;20025;-43
2022/06/02 08:14:26;;;;;;;4.85;3.50;;;;;;;;;;5055260;28;20512;-43
2022/06/02 08:17:06;;;;;;;8.35;3.95;;;;;;;;;;5050012;28;20472;-42
2022/06/02 08:19:41;;;;;;;8.43;3.53;;;;;;;;;;5054174;28;20032;-41
2022/06/02 08:22:09;;;;;;;7.22;3.00;;;;;;;;;;5054779;28;20025;-41
2022/06/02 08:24:46;;;;;;;7.28;3.38;;;;;;;;;;5046243;28;20476;-41
2022/06/02 08:27:30;;;;;;;7.88;3.83;;;;;;;;;;5017171;28;20464;-42
2022/06/02 08:30:04;;;;;;;21.48;10.02;;;;;;;;;;5027102;28;20107;-40
2022/06/02 08:32:48;;;;;;;50.72;15.50;;;;;;;;;;5033028;28;20495;-39
2022/06/02 08:35:21;;;;;;;20.50;7.47;;;;;;;;;;5026423;28;20464;-40
2022/06/02 08:38:02;;;;;;;10.05;4.60;;;;;;;;;;5023909;28;20131;-40
2022/06/02 08:40:46;;;;;;;11.40;5.30;;;;;;;;;;5025071;28;20029;-39
2022/06/02 08:43:30;;;;;;;19.05;7.80;;;;;;;;;;5053855;28;20083;-40
2022/06/02 08:46:05;;;;;;;7.68;3.72;;;;;;;;;;5030927;28;20476;-39
2022/06/02 08:48:48;;;;;;;8.90;4.30;;;;;;;;;;5032335;28;20095;-42
2022/06/02 08:51:20;;;;;;;4.88;2.45;;;;;;;;;;5018684;28;20037;-40
2022/06/02 08:53:54;;;;;;;10.07;3.28;;;;;;;;;;5032132;28;20460;-40
2022/06/02 08:56:32;;;;;;;3.58;2.38;;;;;;;;;;5033186;28;20040;-41
2022/06/02 08:59:16;;;;;;;6.93;3.95;;;;;;;;;;5024862;28;20119;-39
2022/06/02 09:01:52;;;;;;;3.40;2.17;;;;;;;;;;5042877;28;20112;-38
2022/06/02 09:04:24;;;;;;;8.10;2.33;;;;;;;;;;5008215;28;20396;-39
2022/06/02 09:06:52;;;;;;;21.95;8.02;;;;;;;;;;5025754;28;20025;-39
2022/06/02 09:09:17;;;;;;;;;;;;;;;;;;5027963;28;20029;-45
2022/06/02 09:11:51;;;;;;;25.73;9.33;;;;;;;;;;5023411;28;19970;-38
2022/06/02 09:14:36;;;;;;;36.35;12.98;;;;;;;;;;5038305;28;20542;-40
2022/06/02 09:17:01;;;;;;;4.28;2.50;;;;;;;;;;5029655;28;20067;-40
2022/06/02 09:19:32;;;;;;;3.45;2.28;;;;;;;;;;5026552;28;20436;-41
2022/06/02 09:22:13;;;;;;;5.15;2.45;;;;;;;;;;5032968;28;20108;-40
2022/06/02 09:24:40;;;;;;;3.88;2.20;;;;;;;;;;5032191;28;20041;-39
2022/06/02 09:27:38;;;;;;;3.00;2.63;;;;;;;;;;5030217;28;20029;-39
2022/06/02 09:30:03;;;;;;;3.28;2.45;;;;;;;;;;5021468;28;20041;-40
2022/06/02 09:32:47;;;;;;;4.70;2.50;;;;;;;;;;5032017;28;20040;-40
2022/06/02 09:35:22;;;;;;;21.77;9.63;;;;;;;;;;5036714;28;20064;-40
2022/06/02 09:38:00;;;;;;;12.07;6.05;;;;;;;;;;5031250;28;20026;-41
2022/06/02 09:40:31;;;;;;;9.75;4.18;;;;;;;;;;5017702;28;20020;-39
2022/06/02 09:43:06;;;;;;;13.02;4.82;;;;;;;;;;5029795;28;20103;-42
2022/06/02 09:45:31;;;;;;;10.23;4.93;;;;;;;;;;5034582;28;20029;-39
2022/06/02 09:47:56;;;;;;;11.93;6.22;;;;;;;;;;5043048;28;20079;-41
2022/06/02 09:50:34;;;;;;;10.27;2.65;;;;;;;;;;5038053;28;20025;-40
2022/06/02 09:52:59;;;;;;;4.15;2.30;;;;;;;;;;5032602;28;20040;-40
2022/06/02 09:55:36;;;;;;;5.47;2.85;;;;;;;;;;5034049;28;20021;-39
2022/06/02 09:58:02;;;;;;;9.93;4.13;;;;;;;;;;5031293;28;20389;-41
2022/06/02 10:00:27;;;;;;;21.67;3.70;;;;;;;;;;5032809;28;20021;-42
2022/06/02 10:03:05;;;;;;;7.70;3.20;;;;;;;;;;5039860;28;20029;-43
2022/06/02 10:05:48;;;;;;;4.38;2.78;;;;;;;;;;5031235;28;20051;-39
2022/06/02 10:08:17;;;;;;;9.00;4.45;;;;;;;;;;5033316;28;20113;-42
2022/06/02 10:10:51;;;;;;;5.43;3.22;;;;;;;;;;5035071;28;20021;-42
2022/06/02 10:13:20;;;;;;;3.90;2.95;;;;;;;;;;5042369;28;20037;-40
2022/06/02 10:16:03;;;;;;;5.20;3.40;;;;;;;;;;5037954;28;20040;-42
2022/06/02 10:18:34;;;;;;;6.28;3.28;;;;;;;;;;5033154;28;20090;-40
2022/06/02 10:21:12;;;;;;;5.00;3.55;;;;;;;;;;5026304;28;20044;-40
2022/06/02 10:23:48;;;;;;;10.02;3.10;;;;;;;;;;5031377;28;20064;-40
2022/06/02 10:26:14;;;;;;;4.13;3.22;;;;;;;;;;5019935;28;20036;-39
2022/06/02 10:28:55;;;;;;;6.70;3.58;;;;;;;;;;5020006;28;20025;-42
2022/06/02 10:31:21;;;;;;;8.40;3.15;;;;;;;;;;5016299;28;20038;-40
2022/06/02 10:33:55;;;;;;;5.70;2.97;;;;;;;;;;5024426;28;20040;-40
2022/06/02 10:36:41;;;;;;;4.60;2.85;;;;;;;;;;5027203;28;20021;-40
2022/06/02 10:39:24;;;;;;;72.43;5.53;;;;;;;;;;5030959;28;20029;-40
2022/06/02 10:42:11;;;;;;;7.88;2.88;;;;;;;;;;5032326;28;20032;-40
2022/06/02 10:44:36;;;;;;;4.70;2.45;;;;;;;;;;5019560;28;20033;-40
2022/06/02 10:47:08;;;;;;;6.47;2.80;;;;;;;;;;5029529;28;20028;-39
2022/06/02 10:49:44;;;;;;;7.15;2.53;;;;;;;;;;5030406;28;20267;-39
2022/06/02 10:52:21;;;;;;;6.95;2.55;;;;;;;;;;5028625;28;20076;-40
2022/06/02 10:55:01;;;;;;;3.83;2.20;;;;;;;;;;5022370;28;20030;-39
2022/06/02 10:57:33;;;;;;;3.25;2.00;;;;;;;;;;5036537;28;20025;-40
2022/06/02 11:00:17;;;;;;;2.40;1.80;;;;;;;;;;5025344;28;20574;-40
2022/06/02 11:03:01;;;;;;;3.40;2.03;;;;;;;;;;5023460;28;20076;-39
2022/06/02 11:05:45;;;;;;;6.00;3.05;;;;;;;;;;5030869;28;20522;-41
2022/06/02 11:08:33;;;;;;;4.57;2.03;;;;;;;;;;5026998;28;20024;-40
2022/06/02 11:11:34;;;;;;;5.90;1.67;;;;;;;;;;5025954;28;20464;-40
2022/06/02 11:14:14;;;;;;;5.80;2.08;;;;;;;;;;5023714;28;20460;-41
2022/06/02 11:16:58;;;;;;;3.47;2.10;;;;;;;;;;5031179;28;20095;-40
2022/06/02 11:19:23;;;;;;;4.75;2.25;;;;;;;;;;5025531;28;20068;-39
2022/06/02 11:22:07;;;;;;;6.20;2.00;;;;;;;;;;5025098;28;20065;-39
2022/06/02 11:24:33;;;;;;;2.80;2.17;;;;;;;;;;5023222;28;20095;-39
2022/06/02 11:26:58;;;;;;;4.57;1.90;;;;;;;;;;5036428;28;20029;-39
2022/06/02 11:29:38;;;;;;;5.25;2.17;;;;;;;;;;5039603;28;20027;-39
2022/06/02 11:32:07;;;;;;;11.45;3.65;;;;;;;;;;5037460;28;20100;-40
2022/06/02 11:34:51;;;;;;;4.95;2.30;;;;;;;;;;5024508;28;20108;-39
2022/06/02 11:37:35;;;;;;;3.67;1.83;;;;;;;;;;5022435;28;20092;-39
2022/06/02 11:40:18;;;;;;;3.65;2.08;;;;;;;;;;5020994;28;20033;-39
2022/06/02 11:42:43;;;;;;;5.50;2.28;;;;;;;;;;5027799;28;20563;-39
2022/06/02 11:45:19;;;;;;;3.43;2.03;;;;;;;;;;5015611;28;20101;-39
2022/06/02 11:48:14;;;;;;;2.97;1.50;;;;;;;;;;5027811;28;20024;-39
2022/06/02 11:50:48;;;;;;;4.25;1.60;;;;;;;;;;5024633;28;20111;-39
2022/06/02 11:53:20;;;;;;;2.17;1.95;;;;;;;;;;5033359;28;20030;-39
2022/06/02 11:55:54;;;;;;;3.30;1.60;;;;;;;;;;5023120;28;20475;-39
2022/06/02 11:58:38;;;;;;;2.10;1.63;;;;;;;;;;5022796;28;20025;-39
2022/06/02 12:01:37;;;;;;;7.50;1.60;;;;;;;;;;5029962;28;20063;-39
2022/06/02 12:04:21;;;;;;;2.17;1.58;;;;;;;;;;5039508;28;20443;-39
2022/06/02 12:07:06;;;;;;;5.65;1.85;;;;;;;;;;5036377;28;20030;-39
2022/06/02 12:09:57;;;;;;;1.92;1.08;;;;;;;;;;5033373;28;20108;-39
2022/06/02 12:12:41;;;;;;;1.63;1.33;;;;;;;;;;5026333;28;20037;-38
2022/06/02 12:15:27;;;;;;;2.95;1.75;;;;;;;;;;5018424;28;20056;-39
2022/06/02 12:17:53;;;;;;;2.05;1.20;;;;;;;;;;5041674;28;20388;-38
2022/06/02 12:20:19;;;;;;;12.73;2.60;;;;;;;;;;5051254;28;20028;-39
2022/06/02 12:23:02;;;;;;;11.70;2.05;;;;;;;;;;5053431;28;20261;-39
2022/06/02 12:25:31;;;;;;;9.98;2.08;;;;;;;;;;5045091;28;20031;-38
2022/06/02 12:27:57;;;;;;;;;;;;;;;;;;5055067;28;20044;-39
2022/06/02 12:30:31;;;;;;;1.40;1.30;;;;;;;;;;5052532;28;19908;-39
2022/06/02 12:33:15;;;;;;;1.58;1.20;;;;;;;;;;5039489;28;20120;-39
2022/06/02 12:36:00;;;;;;;2.33;1.58;;;;;;;;;;5025806;28;20457;-38
2022/06/02 12:38:39;;;;;;;3.33;1.30;;;;;;;;;;5036832;28;20045;-39
2022/06/02 12:41:08;;;;;;;1.45;1.15;;;;;;;;;;5027932;28;20033;-39
2022/06/02 12:43:57;;;;;;;3.20;1.30;;;;;;;;;;5020133;28;20045;-39
2022/06/02 12:46:32;;;;;;;2.05;1.40;;;;;;;;;;5028972;28;20026;-39
2022/06/02 12:49:00;;;;;;;2.65;1.33;;;;;;;;;;5016266;28;20018;-40
2022/06/02 12:51:51;;;;;;;4.28;1.30;;;;;;;;;;5028885;28;20036;-39
2022/06/02 12:54:32;;;;;;;2.30;1.52;;;;;;;;;;5032987;28;20087;-40
2022/06/02 12:57:03;;;;;;;2.15;1.50;;;;;;;;;;5049440;28;20025;-39
2022/06/02 12:59:36;;;;;;;2.70;1.42;;;;;;;;;;5033601;28;20603;-39
2022/06/02 13:02:04;;;;;;;4.65;1.50;;;;;;;;;;5029353;28;20056;-39
2022/06/02 13:04:48;;;;;;;2.85;1.60;;;;;;;;;;5023387;28;20488;-39
2022/06/02 13:07:19;;;;;;;1.98;1.33;;;;;;;;;;5023438;28;20025;-39
2022/06/02 13:10:01;;;;;;;1.58;1.40;;;;;;;;;;5038499;28;20032;-39
2022/06/02 13:12:32;;;;;;;3.20;1.83;;;;;;;;;;5021965;28;20029;-39
2022/06/02 13:15:07;;;;;;;4.18;1.83;;;;;;;;;;5032355;28;20075;-40
2022/06/02 13:17:32;;;;;;;5.15;2.00;;;;;;;;;;5029567;28;20025;-39
2022/06/02 13:19:57;;;;;;;3.55;1.33;;;;;;;;;;5032464;28;20037;-40
2022/06/02 13:22:23;;;;;;;1.83;1.40;;;;;;;;;;5040550;28;20025;-40
2022/06/02 13:24:54;;;;;;;3.15;1.60;;;;;;;;;;5028683;28;20045;-39
2022/06/02 13:27:30;;;;;;;2.45;1.40;;;;;;;;;;5028638;28;20025;-41
2022/06/02 13:30:18;;;;;;;1.75;1.30;;;;;;;;;;5022488;28;20029;-39
2022/06/02 13:32:53;;;;;;;3.15;1.65;;;;;;;;;;4996004;28;20500;-39
2022/06/02 13:35:18;;;;;;;4.15;1.55;;;;;;;;;;5030800;28;20033;-40
2022/06/02 13:37:43;;;;;;;2.40;1.47;;;;;;;;;;5026130;28;20033;-39
2022/06/02 13:40:15;;;;;;;4.40;1.50;;;;;;;;;;5032320;28;20258;-38
2022/06/02 13:42:49;;;;;;;2.72;1.67;;;;;;;;;;5051664;28;20325;-39
2022/06/02 13:45:18;;;;;;;5.20;1.67;;;;;;;;;;5034758;28;20021;-39
2022/06/02 13:48:02;;;;;;;7.50;2.03;;;;;;;;;;5031937;28;20041;-39
2022/06/02 13:50:46;;;;;;;4.78;1.63;;;;;;;;;;5033006;28;20034;-39
2022/06/02 13:53:22;;;;;;;4.60;1.95;;;;;;;;;;5033353;28;20021;-39
2022/06/02 13:59:00;;;;;;;3.30;1.60;;;;;;;;;;5022731;28;20028;-40
2022/06/02 14:01:43;;;;;;;1.65;1.20;;;;;;;;;;5030559;28;20025;-40
2022/06/02 14:04:11;;;;;;;1.10;1.00;;;;;;;;;;5031967;28;20064;-40
2022/06/02 14:06:43;;;;;;;5.20;1.60;;;;;;;;;;5029189;28;20033;-40
2022/06/02 14:09:13;;;;;;;2.60;1.65;;;;;;;;;;5029869;28;20042;-41
2022/06/02 14:11:45;;;;;;;1.90;1.30;;;;;;;;;;5028051;28;20034;-40
2022/06/02 14:14:28;;;;;;;1.65;1.48;;;;;;;;;;5021815;28;20056;-39
2022/06/02 14:17:03;;;;;;;4.80;1.35;;;;;;;;;;5024109;28;20026;-40
2022/06/02 14:19:32;;;;;;;1.77;1.20;;;;;;;;;;5025961;28;20484;-41
2022/06/02 14:21:58;;;;;;;3.85;1.35;;;;;;;;;;5029251;28;20396;-43
2022/06/02 14:24:29;;;;;;;2.33;1.35;;;;;;;;;;5023459;28;20088;-41
2022/06/02 14:26:54;;;;;;;5.32;1.58;;;;;;;;;;5020935;28;20116;-46
2022/06/02 14:29:20;;;;;;;3.00;1.40;;;;;;;;;;5029166;28;20129;-43
2022/06/02 14:31:48;;;;;;;3.10;1.65;;;;;;;;;;5032664;28;20067;-43
2022/06/02 14:34:20;;;;;;;1.77;1.30;;;;;;;;;;5020529;28;20030;-41
2022/06/02 14:36:54;;;;;;;3.63;1.58;;;;;;;;;;5009595;28;20421;-42
2022/06/02 14:39:26;;;;;;;2.75;1.45;;;;;;;;;;5011427;28;20022;-41
2022/06/02 14:42:10;;;;;;;2.03;1.40;;;;;;;;;;5012707;28;20048;-41
2022/06/02 14:44:49;;;;;;;2.60;1.42;;;;;;;;;;5011757;28;20538;-41
2022/06/02 14:47:14;;;;;;;2.85;1.25;;;;;;;;;;5012265;28;20080;-42
2022/06/02 14:49:58;;;;;;;3.30;1.30;;;;;;;;;;5009983;28;20022;-42
2022/06/02 14:52:40;;;;;;;1.55;1.13;;;;;;;;;;5010082;28;20026;-41
2022/06/02 14:55:15;;;;;;;0.98;0.95;;;;;;;;;;5010695;28;20507;-41
2022/06/02 14:57:46;;;;;;;2.20;1.10;;;;;;;;;;5011159;28;20021;-41
2022/06/02 15:00:17;;;;;;;7.00;1.70;;;;;;;;;;5012441;28;20466;-41
2022/06/02 15:03:03;;;;;;;1.35;1.10;;;;;;;;;;5012721;28;20022;-41
2022/06/02 15:05:47;;;;;;;2.10;1.23;;;;;;;;;;5013133;28;20040;-41
2022/06/02 15:08:16;;;;;;;3.17;1.40;;;;;;;;;;5011801;28;20030;-40
2022/06/02 15:10:58;;;;;;;2.08;1.40;;;;;;;;;;5013002;28;20022;-40
2022/06/02 15:13:24;;;;;;;1.23;1.13;;;;;;;;;;5011547;28;20048;-41
2022/06/02 15:16:01;;;;;;;6.10;1.65;;;;;;;;;;5026319;28;20018;-40
2022/06/02 15:18:38;;;;;;;1.92;1.23;;;;;;;;;;5012813;28;20022;-41
2022/06/02 15:21:27;;;;;;;4.28;1.10;;;;;;;;;;5031106;28;20030;-40
2022/06/02 15:23:56;;;;;;;1.98;1.20;;;;;;;;;;5021218;28;20084;-41
2022/06/02 15:26:21;;;;;;;2.13;1.40;;;;;;;;;;5031352;28;20079;-40
2022/06/02 15:29:02;;;;;;;1.40;1.10;;;;;;;;;;5032733;28;20026;-41
2022/06/02 15:31:45;;;;;;;2.40;1.10;;;;;;;;;;5031212;28;20022;-40
2022/06/02 15:34:11;;;;;;;0.82;0.80;;;;;;;;;;5030978;28;20350;-40
2022/06/02 15:36:39;;;;;;;3.97;1.20;;;;;;;;;;5032428;28;20062;-40
2022/06/02 15:39:23;;;;;;;3.72;1.20;;;;;;;;;;5036624;28;20246;-40
2022/06/02 15:42:04;;;;;;;2.17;1.00;;;;;;;;;;5036452;28;20500;-40
2022/06/02 15:45:01;;;;;;;1.70;1.13;;;;;;;;;;5036023;28;20392;-44
2022/06/02 15:47:45;;;;;;;1.95;1.20;;;;;;;;;;5036321;28;20032;-40
2022/06/02 15:50:26;;;;;;;1.67;0.88;;;;;;;;;;5035151;28;20017;-41